sensor_id;sensor_type;location;lat;lon;timestamp;temperature;humidity
17172;DHT22;8701;50.150;8.756;2023-08-06T00:02:01;17.80;99.90
17172;DHT22;8701;50.150;8.756;2023-08-06T00:06:04;17.70;99.90
17172;DHT22;8701;50.150;8.756;2023-08-06T00:10:09;17.70;99.90
17172;DHT22;8701;50.150;8.756;2023-08-06T00:14:11;17.70;99.90
17172;DHT22;8701;50.150;8.756;2023-08-06T00:18:13;17.70;99.90
17172;DHT22;8701;50.150;8.756;2023-08-06T00:22:15;17.70;99.90
17172;DHT22;8701;50.150;8.756;2023-08-06T00:26:19;17.60;99.90
17172;DHT22;8701;50.150;8.756;2023-08-06T00:30:21;17.60;99.90
17172;DHT22;8701;50.150;8.756;2023-08-06T00:34:25;17.60;99.90
17172;DHT22;8701;50.150;8.756;2023-08-06T00:38:27;17.60;99.90
17172;DHT22;8701;50.150;8.756;2023-08-06T00:42:31;17.60;99.90
17172;DHT22;8701;50.150;8.756;2023-08-06T00:46:33;17.60;99.90
17172;DHT22;8701;50.150;8.756;2023-08-06T00:50:36;17.60;99.90
17172;DHT22;8701;50.150;8.756;2023-08-06T00:54:38;17.60;99.90
17172;DHT22;8701;50.150;8.756;2023-08-06T00:58:42;17.60;99.90
17172;DHT22;8701;50.150;8.756;2023-08-06T01:02:44;17.60;99.90
17172;DHT22;8701;50.150;8.756;2023-08-06T01:06:48;17.60;99.90
17172;DHT22;8701;50.150;8.756;2023-08-06T01:11:05;17.50;99.90
17172;DHT22;8701;50.150;8.756;2023-08-06T01:15:16;17.50;99.90
17172;DHT22;8701;50.150;8.756;2023-08-06T01:19:20;17.50;99.90
17172;DHT22;8701;50.150;8.756;2023-08-06T01:23:24;17.50;99.90
17172;DHT22;8701;50.150;8.756;2023-08-06T01:27:33;17.50;99.90
17172;DHT22;8701;50.150;8.756;2023-08-06T01:31:40;17.50;99.90
17172;DHT22;8701;50.150;8.756;2023-08-06T01:35:43;17.50;99.90
17172;DHT22;8701;50.150;8.756;2023-08-06T01:39:47;17.50;99.90
17172;DHT22;8701;50.150;8.756;2023-08-06T01:43:49;17.50;99.90
17172;DHT22;8701;50.150;8.756;2023-08-06T01:47:52;17.50;99.90
17172;DHT22;8701;50.150;8.756;2023-08-06T01:51:54;17.50;99.90
17172;DHT22;8701;50.150;8.756;2023-08-06T01:55:57;17.50;99.90
17172;DHT22;8701;50.150;8.756;2023-08-06T02:00:00;17.50;99.90
17172;DHT22;8701;50.150;8.756;2023-08-06T02:04:02;17.50;99.90
17172;DHT22;8701;50.150;8.756;2023-08-06T02:08:04;17.50;99.90
17172;DHT22;8701;50.150;8.756;2023-08-06T02:12:08;17.50;99.90
17172;DHT22;8701;50.150;8.756;2023-08-06T02:16:10;17.50;99.90
17172;DHT22;8701;50.150;8.756;2023-08-06T02:20:12;17.50;99.90
17172;DHT22;8701;50.150;8.756;2023-08-06T02:24:15;17.50;99.90
17172;DHT22;8701;50.150;8.756;2023-08-06T02:28:18;17.50;99.90
17172;DHT22;8701;50.150;8.756;2023-08-06T02:32:21;17.50;99.90
17172;DHT22;8701;50.150;8.756;2023-08-06T02:36:23;17.40;99.90
17172;DHT22;8701;50.150;8.756;2023-08-06T02:40:25;17.40;99.90
17172;DHT22;8701;50.150;8.756;2023-08-06T02:44:29;17.40;99.90
17172;DHT22;8701;50.150;8.756;2023-08-06T02:48:31;17.40;99.90
17172;DHT22;8701;50.150;8.756;2023-08-06T02:52:34;17.40;99.90
17172;DHT22;8701;50.150;8.756;2023-08-06T02:56:36;17.30;99.90
17172;DHT22;8701;50.150;8.756;2023-08-06T03:01:00;17.30;99.90
17172;DHT22;8701;50.150;8.756;2023-08-06T03:05:04;17.30;99.90
17172;DHT22;8701;50.150;8.756;2023-08-06T03:09:11;17.10;99.90
17172;DHT22;8701;50.150;8.756;2023-08-06T03:13:14;17.10;99.90
17172;DHT22;8701;50.150;8.756;2023-08-06T03:17:18;17.10;99.90
17172;DHT22;8701;50.150;8.756;2023-08-06T03:21:21;17.10;99.90
17172;DHT22;8701;50.150;8.756;2023-08-06T03:25:23;17.10;99.90
17172;DHT22;8701;50.150;8.756;2023-08-06T03:29:25;17.10;99.90
17172;DHT22;8701;50.150;8.756;2023-08-06T03:33:31;17.00;99.90
17172;DHT22;8701;50.150;8.756;2023-08-06T03:37:34;17.00;99.90
17172;DHT22;8701;50.150;8.756;2023-08-06T03:41:37;17.00;99.90
17172;DHT22;8701;50.150;8.756;2023-08-06T03:45:40;17.00;99.90
17172;DHT22;8701;50.150;8.756;2023-08-06T03:49:45;17.00;99.90
17172;DHT22;8701;50.150;8.756;2023-08-06T03:53:48;17.00;99.90
17172;DHT22;8701;50.150;8.756;2023-08-06T03:57:51;17.00;99.90
17172;DHT22;8701;50.150;8.756;2023-08-06T04:01:53;16.90;99.90
17172;DHT22;8701;50.150;8.756;2023-08-06T04:05:56;16.80;99.90
17172;DHT22;8701;50.150;8.756;2023-08-06T04:10:00;16.80;99.90
17172;DHT22;8701;50.150;8.756;2023-08-06T04:14:02;16.80;99.90
17172;DHT22;8701;50.150;8.756;2023-08-06T04:18:05;16.80;99.90
17172;DHT22;8701;50.150;8.756;2023-08-06T04:22:09;16.70;99.90
17172;DHT22;8701;50.150;8.756;2023-08-06T04:26:11;16.80;99.90
17172;DHT22;8701;50.150;8.756;2023-08-06T04:30:13;16.70;99.90
17172;DHT22;8701;50.150;8.756;2023-08-06T04:34:16;16.80;99.90
17172;DHT22;8701;50.150;8.756;2023-08-06T04:38:20;16.70;99.90
17172;DHT22;8701;50.150;8.756;2023-08-06T04:42:23;16.70;99.90
17172;DHT22;8701;50.150;8.756;2023-08-06T04:46:25;16.70;99.90
17172;DHT22;8701;50.150;8.756;2023-08-06T04:50:27;16.80;99.90
17172;DHT22;8701;50.150;8.756;2023-08-06T04:54:31;16.80;99.90
17172;DHT22;8701;50.150;8.756;2023-08-06T04:58:33;16.80;99.90
17172;DHT22;8701;50.150;8.756;2023-08-06T05:02:35;16.80;99.90
17172;DHT22;8701;50.150;8.756;2023-08-06T05:06:39;16.80;99.90
17172;DHT22;8701;50.150;8.756;2023-08-06T05:10:43;16.80;99.90
17172;DHT22;8701;50.150;8.756;2023-08-06T05:14:46;16.70;99.90
17172;DHT22;8701;50.150;8.756;2023-08-06T05:18:48;16.70;99.90
17172;DHT22;8701;50.150;8.756;2023-08-06T05:22:50;16.70;99.90
17172;DHT22;8701;50.150;8.756;2023-08-06T05:26:54;16.60;99.90
17172;DHT22;8701;50.150;8.756;2023-08-06T05:30:56;16.60;99.90
17172;DHT22;8701;50.150;8.756;2023-08-06T05:34:58;16.60;99.90
17172;DHT22;8701;50.150;8.756;2023-08-06T05:39:00;16.60;99.90
17172;DHT22;8701;50.150;8.756;2023-08-06T05:43:04;16.60;99.90
17172;DHT22;8701;50.150;8.756;2023-08-06T05:47:06;16.60;99.90
17172;DHT22;8701;50.150;8.756;2023-08-06T05:51:08;16.60;99.90
17172;DHT22;8701;50.150;8.756;2023-08-06T05:55:13;16.60;99.90
17172;DHT22;8701;50.150;8.756;2023-08-06T05:59:17;16.60;99.90
17172;DHT22;8701;50.150;8.756;2023-08-06T06:03:19;16.50;99.90
17172;DHT22;8701;50.150;8.756;2023-08-06T06:07:21;16.50;99.90
17172;DHT22;8701;50.150;8.756;2023-08-06T06:11:23;16.50;99.90
17172;DHT22;8701;50.150;8.756;2023-08-06T06:15:27;16.50;99.90
17172;DHT22;8701;50.150;8.756;2023-08-06T06:19:29;16.50;99.90
17172;DHT22;8701;50.150;8.756;2023-08-06T06:23:32;16.50;99.90
17172;DHT22;8701;50.150;8.756;2023-08-06T06:27:34;16.50;99.90
17172;DHT22;8701;50.150;8.756;2023-08-06T06:31:37;16.60;99.90
17172;DHT22;8701;50.150;8.756;2023-08-06T06:35:40;16.60;99.90
17172;DHT22;8701;50.150;8.756;2023-08-06T06:39:42;16.60;99.90
17172;DHT22;8701;50.150;8.756;2023-08-06T06:43:45;16.60;99.90
17172;DHT22;8701;50.150;8.756;2023-08-06T06:47:48;16.70;99.90
17172;DHT22;8701;50.150;8.756;2023-08-06T06:51:51;16.60;99.90
17172;DHT22;8701;50.150;8.756;2023-08-06T06:55:53;16.60;99.90
17172;DHT22;8701;50.150;8.756;2023-08-06T06:59:55;16.60;99.90
17172;DHT22;8701;50.150;8.756;2023-08-06T07:03:59;16.60;99.90
17172;DHT22;8701;50.150;8.756;2023-08-06T07:08:05;16.60;99.90
17172;DHT22;8701;50.150;8.756;2023-08-06T07:12:07;16.70;99.90
17172;DHT22;8701;50.150;8.756;2023-08-06T07:16:10;16.70;99.90
17172;DHT22;8701;50.150;8.756;2023-08-06T07:20:13;16.60;99.90
17172;DHT22;8701;50.150;8.756;2023-08-06T07:24:15;16.60;99.90
17172;DHT22;8701;50.150;8.756;2023-08-06T07:28:18;16.60;99.90
17172;DHT22;8701;50.150;8.756;2023-08-06T07:32:20;16.60;99.90
17172;DHT22;8701;50.150;8.756;2023-08-06T07:36:23;16.60;99.90
17172;DHT22;8701;50.150;8.756;2023-08-06T07:40:26;16.50;99.90
17172;DHT22;8701;50.150;8.756;2023-08-06T07:44:28;16.40;99.90
17172;DHT22;8701;50.150;8.756;2023-08-06T07:48:30;16.40;99.90
17172;DHT22;8701;50.150;8.756;2023-08-06T07:52:34;16.40;99.90
17172;DHT22;8701;50.150;8.756;2023-08-06T07:56:36;16.30;99.90
17172;DHT22;8701;50.150;8.756;2023-08-06T08:00:40;16.30;99.90
17172;DHT22;8701;50.150;8.756;2023-08-06T08:04:43;16.30;99.90
17172;DHT22;8701;50.150;8.756;2023-08-06T08:08:49;16.30;99.90
17172;DHT22;8701;50.150;8.756;2023-08-06T08:12:52;16.30;99.90
17172;DHT22;8701;50.150;8.756;2023-08-06T08:16:55;16.30;99.90
17172;DHT22;8701;50.150;8.756;2023-08-06T08:20:57;16.30;99.90
17172;DHT22;8701;50.150;8.756;2023-08-06T08:25:01;16.40;99.90
17172;DHT22;8701;50.150;8.756;2023-08-06T08:29:04;16.50;99.90
17172;DHT22;8701;50.150;8.756;2023-08-06T08:33:06;16.50;99.90
17172;DHT22;8701;50.150;8.756;2023-08-06T08:37:09;16.50;99.90
17172;DHT22;8701;50.150;8.756;2023-08-06T08:41:12;16.60;99.90
17172;DHT22;8701;50.150;8.756;2023-08-06T08:45:15;16.70;99.90
17172;DHT22;8701;50.150;8.756;2023-08-06T08:49:18;16.80;99.90
17172;DHT22;8701;50.150;8.756;2023-08-06T08:53:22;17.00;99.90
17172;DHT22;8701;50.150;8.756;2023-08-06T08:57:25;17.60;99.90
17172;DHT22;8701;50.150;8.756;2023-08-06T09:01:28;18.10;99.90
17172;DHT22;8701;50.150;8.756;2023-08-06T09:05:31;17.90;99.90
17172;DHT22;8701;50.150;8.756;2023-08-06T09:09:34;17.70;99.90
17172;DHT22;8701;50.150;8.756;2023-08-06T09:13:40;17.60;99.90
17172;DHT22;8701;50.150;8.756;2023-08-06T09:17:42;17.50;99.90
17172;DHT22;8701;50.150;8.756;2023-08-06T09:21:45;18.20;99.90
17172;DHT22;8701;50.150;8.756;2023-08-06T09:25:49;20.00;99.90
17172;DHT22;8701;50.150;8.756;2023-08-06T09:29:53;20.40;99.90
17172;DHT22;8701;50.150;8.756;2023-08-06T09:33:55;19.70;99.90
17172;DHT22;8701;50.150;8.756;2023-08-06T09:38:05;19.40;99.90
17172;DHT22;8701;50.150;8.756;2023-08-06T09:42:09;20.60;99.90
17172;DHT22;8701;50.150;8.756;2023-08-06T09:46:13;21.30;99.90
17172;DHT22;8701;50.150;8.756;2023-08-06T09:50:17;20.60;99.90
17172;DHT22;8701;50.150;8.756;2023-08-06T09:54:20;19.80;99.90
17172;DHT22;8701;50.150;8.756;2023-08-06T09:58:25;19.20;99.90
17172;DHT22;8701;50.150;8.756;2023-08-06T10:02:28;18.80;99.90
17172;DHT22;8701;50.150;8.756;2023-08-06T10:06:34;18.30;99.90
17172;DHT22;8701;50.150;8.756;2023-08-06T10:10:36;18.20;99.90
17172;DHT22;8701;50.150;8.756;2023-08-06T10:14:39;18.20;99.90
17172;DHT22;8701;50.150;8.756;2023-08-06T10:18:43;18.30;99.90
17172;DHT22;8701;50.150;8.756;2023-08-06T10:22:59;18.50;99.90
17172;DHT22;8701;50.150;8.756;2023-08-06T10:27:02;18.40;99.90
17172;DHT22;8701;50.150;8.756;2023-08-06T10:31:05;18.80;99.90
17172;DHT22;8701;50.150;8.756;2023-08-06T10:35:27;19.40;99.90
17172;DHT22;8701;50.150;8.756;2023-08-06T10:39:31;19.50;99.90
17172;DHT22;8701;50.150;8.756;2023-08-06T10:43:34;20.10;99.90
17172;DHT22;8701;50.150;8.756;2023-08-06T10:47:38;20.30;99.90
17172;DHT22;8701;50.150;8.756;2023-08-06T10:51:42;20.70;99.90
17172;DHT22;8701;50.150;8.756;2023-08-06T10:55:44;21.40;99.90
17172;DHT22;8701;50.150;8.756;2023-08-06T10:59:47;21.70;99.90
17172;DHT22;8701;50.150;8.756;2023-08-06T11:03:49;21.20;99.90
17172;DHT22;8701;50.150;8.756;2023-08-06T11:07:55;21.40;99.90
17172;DHT22;8701;50.150;8.756;2023-08-06T11:11:57;22.30;99.90
17172;DHT22;8701;50.150;8.756;2023-08-06T11:15:59;21.80;99.90
17172;DHT22;8701;50.150;8.756;2023-08-06T11:20:02;21.50;99.90
17172;DHT22;8701;50.150;8.756;2023-08-06T11:24:06;21.50;99.90
17172;DHT22;8701;50.150;8.756;2023-08-06T11:28:08;22.20;99.90
17172;DHT22;8701;50.150;8.756;2023-08-06T11:32:11;22.70;99.90
17172;DHT22;8701;50.150;8.756;2023-08-06T11:36:13;22.50;99.90
17172;DHT22;8701;50.150;8.756;2023-08-06T11:40:17;22.60;99.90
17172;DHT22;8701;50.150;8.756;2023-08-06T11:44:20;23.40;99.90
17172;DHT22;8701;50.150;8.756;2023-08-06T11:48:23;23.50;99.90
17172;DHT22;8701;50.150;8.756;2023-08-06T11:52:26;23.40;99.90
17172;DHT22;8701;50.150;8.756;2023-08-06T11:56:29;24.20;99.90
17172;DHT22;8701;50.150;8.756;2023-08-06T12:00:31;23.50;99.90
17172;DHT22;8701;50.150;8.756;2023-08-06T12:09:08;21.60;99.90
17172;DHT22;8701;50.150;8.756;2023-08-06T12:13:12;20.90;99.90
17172;DHT22;8701;50.150;8.756;2023-08-06T12:17:14;20.40;99.90
17172;DHT22;8701;50.150;8.756;2023-08-06T12:21:16;20.10;99.90
17172;DHT22;8701;50.150;8.756;2023-08-06T12:25:19;20.10;99.90
17172;DHT22;8701;50.150;8.756;2023-08-06T12:29:22;20.00;99.90
17172;DHT22;8701;50.150;8.756;2023-08-06T12:33:24;19.40;99.90
17172;DHT22;8701;50.150;8.756;2023-08-06T12:37:27;19.10;99.90
17172;DHT22;8701;50.150;8.756;2023-08-06T12:41:29;18.90;99.90
17172;DHT22;8701;50.150;8.756;2023-08-06T12:45:32;18.80;99.90
17172;DHT22;8701;50.150;8.756;2023-08-06T12:49:35;18.80;99.90
17172;DHT22;8701;50.150;8.756;2023-08-06T12:53:37;18.70;99.90
17172;DHT22;8701;50.150;8.756;2023-08-06T12:57:39;18.70;99.90
17172;DHT22;8701;50.150;8.756;2023-08-06T13:01:44;18.60;99.90
17172;DHT22;8701;50.150;8.756;2023-08-06T13:05:46;18.60;99.90
17172;DHT22;8701;50.150;8.756;2023-08-06T13:09:48;18.40;99.90
17172;DHT22;8701;50.150;8.756;2023-08-06T13:13:50;18.30;99.90
17172;DHT22;8701;50.150;8.756;2023-08-06T13:17:54;18.40;99.90
17172;DHT22;8701;50.150;8.756;2023-08-06T13:22:01;18.40;99.90
17172;DHT22;8701;50.150;8.756;2023-08-06T13:26:05;18.20;99.90
17172;DHT22;8701;50.150;8.756;2023-08-06T13:30:09;18.20;99.90
17172;DHT22;8701;50.150;8.756;2023-08-06T13:34:13;18.10;99.90
17172;DHT22;8701;50.150;8.756;2023-08-06T13:38:17;17.90;99.90
17172;DHT22;8701;50.150;8.756;2023-08-06T13:42:19;17.60;99.90
17172;DHT22;8701;50.150;8.756;2023-08-06T13:46:21;17.60;99.90
17172;DHT22;8701;50.150;8.756;2023-08-06T13:50:25;17.40;99.90
17172;DHT22;8701;50.150;8.756;2023-08-06T13:54:28;17.50;99.90
17172;DHT22;8701;50.150;8.756;2023-08-06T13:58:31;17.40;99.90
17172;DHT22;8701;50.150;8.756;2023-08-06T14:02:33;17.30;99.90
17172;DHT22;8701;50.150;8.756;2023-08-06T14:06:36;17.50;99.90
17172;DHT22;8701;50.150;8.756;2023-08-06T14:10:38;17.40;99.90
17172;DHT22;8701;50.150;8.756;2023-08-06T14:14:40;17.30;99.90
17172;DHT22;8701;50.150;8.756;2023-08-06T14:18:43;17.30;99.90
17172;DHT22;8701;50.150;8.756;2023-08-06T14:22:46;17.20;99.90
17172;DHT22;8701;50.150;8.756;2023-08-06T14:26:49;17.10;99.90
17172;DHT22;8701;50.150;8.756;2023-08-06T14:30:51;17.00;99.90
17172;DHT22;8701;50.150;8.756;2023-08-06T14:34:53;17.00;99.90
17172;DHT22;8701;50.150;8.756;2023-08-06T14:38:57;17.20;99.90
17172;DHT22;8701;50.150;8.756;2023-08-06T14:42:59;17.10;99.90
17172;DHT22;8701;50.150;8.756;2023-08-06T14:47:01;17.20;99.90
17172;DHT22;8701;50.150;8.756;2023-08-06T14:51:04;17.30;99.90
17172;DHT22;8701;50.150;8.756;2023-08-06T14:55:08;17.30;99.90
17172;DHT22;8701;50.150;8.756;2023-08-06T14:59:10;17.30;99.90
17172;DHT22;8701;50.150;8.756;2023-08-06T15:03:12;17.40;99.90
17172;DHT22;8701;50.150;8.756;2023-08-06T15:07:14;17.30;99.90
17172;DHT22;8701;50.150;8.756;2023-08-06T15:11:18;17.20;99.90
17172;DHT22;8701;50.150;8.756;2023-08-06T15:15:21;17.30;99.90
17172;DHT22;8701;50.150;8.756;2023-08-06T15:19:24;17.20;99.90
17172;DHT22;8701;50.150;8.756;2023-08-06T15:23:26;17.20;99.90
17172;DHT22;8701;50.150;8.756;2023-08-06T15:27:29;17.20;99.90
17172;DHT22;8701;50.150;8.756;2023-08-06T15:31:36;17.10;99.90
17172;DHT22;8701;50.150;8.756;2023-08-06T15:35:39;17.00;99.90
17172;DHT22;8701;50.150;8.756;2023-08-06T15:39:41;17.00;99.90
17172;DHT22;8701;50.150;8.756;2023-08-06T15:43:44;17.00;99.90
17172;DHT22;8701;50.150;8.756;2023-08-06T15:47:47;17.00;99.90
17172;DHT22;8701;50.150;8.756;2023-08-06T15:51:49;17.00;99.90
17172;DHT22;8701;50.150;8.756;2023-08-06T15:55:53;16.90;99.90
17172;DHT22;8701;50.150;8.756;2023-08-06T15:59:57;16.90;99.90
17172;DHT22;8701;50.150;8.756;2023-08-06T16:03:59;16.80;99.90
17172;DHT22;8701;50.150;8.756;2023-08-06T16:08:02;16.80;99.90
17172;DHT22;8701;50.150;8.756;2023-08-06T16:12:07;16.70;99.90
17172;DHT22;8701;50.150;8.756;2023-08-06T16:16:10;16.60;99.90
17172;DHT22;8701;50.150;8.756;2023-08-06T16:20:13;16.60;99.90
17172;DHT22;8701;50.150;8.756;2023-08-06T16:24:15;16.60;99.90
17172;DHT22;8701;50.150;8.756;2023-08-06T16:28:18;16.50;99.90
17172;DHT22;8701;50.150;8.756;2023-08-06T16:32:21;16.50;99.90
17172;DHT22;8701;50.150;8.756;2023-08-06T16:36:24;16.50;99.90
17172;DHT22;8701;50.150;8.756;2023-08-06T16:40:27;16.50;99.90
17172;DHT22;8701;50.150;8.756;2023-08-06T16:44:29;16.50;99.90
17172;DHT22;8701;50.150;8.756;2023-08-06T16:48:34;16.50;99.90
17172;DHT22;8701;50.150;8.756;2023-08-06T16:52:37;16.40;99.90
17172;DHT22;8701;50.150;8.756;2023-08-06T16:56:39;16.40;99.90
17172;DHT22;8701;50.150;8.756;2023-08-06T17:00:44;16.40;99.90
17172;DHT22;8701;50.150;8.756;2023-08-06T17:04:47;16.30;99.90
17172;DHT22;8701;50.150;8.756;2023-08-06T17:08:50;16.30;99.90
17172;DHT22;8701;50.150;8.756;2023-08-06T17:12:52;16.20;99.90
17172;DHT22;8701;50.150;8.756;2023-08-06T17:16:55;16.10;99.90
17172;DHT22;8701;50.150;8.756;2023-08-06T17:20:59;16.10;99.90
17172;DHT22;8701;50.150;8.756;2023-08-06T17:25:02;16.10;99.90
17172;DHT22;8701;50.150;8.756;2023-08-06T17:29:06;16.00;99.90
17172;DHT22;8701;50.150;8.756;2023-08-06T17:33:09;15.90;99.90
17172;DHT22;8701;50.150;8.756;2023-08-06T17:37:13;16.00;99.90
17172;DHT22;8701;50.150;8.756;2023-08-06T17:41:15;16.10;99.90
17172;DHT22;8701;50.150;8.756;2023-08-06T17:45:18;15.90;99.90
17172;DHT22;8701;50.150;8.756;2023-08-06T17:49:20;16.00;99.90
17172;DHT22;8701;50.150;8.756;2023-08-06T17:53:24;15.90;99.90
17172;DHT22;8701;50.150;8.756;2023-08-06T17:57:26;15.90;99.90
17172;DHT22;8701;50.150;8.756;2023-08-06T18:01:29;15.90;99.90
17172;DHT22;8701;50.150;8.756;2023-08-06T18:05:31;15.90;99.90
17172;DHT22;8701;50.150;8.756;2023-08-06T18:09:36;15.90;99.90
17172;DHT22;8701;50.150;8.756;2023-08-06T18:13:38;15.80;99.90
17172;DHT22;8701;50.150;8.756;2023-08-06T18:17:40;15.80;99.90
17172;DHT22;8701;50.150;8.756;2023-08-06T18:21:43;15.70;99.90
17172;DHT22;8701;50.150;8.756;2023-08-06T18:25:46;15.70;99.90
17172;DHT22;8701;50.150;8.756;2023-08-06T18:29:49;15.70;99.90
17172;DHT22;8701;50.150;8.756;2023-08-06T18:33:51;15.70;99.90
17172;DHT22;8701;50.150;8.756;2023-08-06T18:37:53;15.70;99.90
17172;DHT22;8701;50.150;8.756;2023-08-06T18:41:58;15.70;99.90
17172;DHT22;8701;50.150;8.756;2023-08-06T18:46:00;15.60;99.90
17172;DHT22;8701;50.150;8.756;2023-08-06T18:50:03;15.60;99.90
17172;DHT22;8701;50.150;8.756;2023-08-06T18:54:05;15.80;99.90
17172;DHT22;8701;50.150;8.756;2023-08-06T18:58:09;15.60;99.90
17172;DHT22;8701;50.150;8.756;2023-08-06T19:02:11;15.70;99.90
17172;DHT22;8701;50.150;8.756;2023-08-06T19:06:13;15.60;99.90
17172;DHT22;8701;50.150;8.756;2023-08-06T19:10:16;15.70;99.90
17172;DHT22;8701;50.150;8.756;2023-08-06T19:14:20;15.70;99.90
17172;DHT22;8701;50.150;8.756;2023-08-06T19:18:22;15.70;99.90
17172;DHT22;8701;50.150;8.756;2023-08-06T19:22:24;15.60;99.90
17172;DHT22;8701;50.150;8.756;2023-08-06T19:26:26;15.60;99.90
17172;DHT22;8701;50.150;8.756;2023-08-06T19:30:30;15.60;99.90
17172;DHT22;8701;50.150;8.756;2023-08-06T19:34:33;15.60;99.90
17172;DHT22;8701;50.150;8.756;2023-08-06T19:38:35;15.60;99.90
17172;DHT22;8701;50.150;8.756;2023-08-06T19:42:37;15.60;99.90
17172;DHT22;8701;50.150;8.756;2023-08-06T19:46:40;15.50;99.90
17172;DHT22;8701;50.150;8.756;2023-08-06T19:50:50;15.50;99.90
17172;DHT22;8701;50.150;8.756;2023-08-06T19:54:52;15.50;99.90
17172;DHT22;8701;50.150;8.756;2023-08-06T19:58:54;15.50;99.90
17172;DHT22;8701;50.150;8.756;2023-08-06T20:02:58;15.40;99.90
17172;DHT22;8701;50.150;8.756;2023-08-06T20:07:00;15.40;99.90
17172;DHT22;8701;50.150;8.756;2023-08-06T20:11:04;15.40;99.90
17172;DHT22;8701;50.150;8.756;2023-08-06T20:15:07;15.40;99.90
17172;DHT22;8701;50.150;8.756;2023-08-06T20:19:10;15.40;99.90
17172;DHT22;8701;50.150;8.756;2023-08-06T20:23:13;15.30;99.90
17172;DHT22;8701;50.150;8.756;2023-08-06T20:27:16;15.20;99.90
17172;DHT22;8701;50.150;8.756;2023-08-06T20:31:19;15.20;99.90
17172;DHT22;8701;50.150;8.756;2023-08-06T20:35:23;15.30;99.90
17172;DHT22;8701;50.150;8.756;2023-08-06T20:39:25;15.20;99.90
17172;DHT22;8701;50.150;8.756;2023-08-06T20:43:27;15.30;99.90
17172;DHT22;8701;50.150;8.756;2023-08-06T20:47:30;15.20;99.90
17172;DHT22;8701;50.150;8.756;2023-08-06T20:51:33;15.30;99.90
17172;DHT22;8701;50.150;8.756;2023-08-06T20:55:35;15.30;99.90
17172;DHT22;8701;50.150;8.756;2023-08-06T20:59:39;15.20;99.90
17172;DHT22;8701;50.150;8.756;2023-08-06T21:03:41;15.20;99.90
17172;DHT22;8701;50.150;8.756;2023-08-06T21:07:44;15.20;99.90
17172;DHT22;8701;50.150;8.756;2023-08-06T21:11:47;15.20;99.90
17172;DHT22;8701;50.150;8.756;2023-08-06T21:15:58;15.20;99.90
17172;DHT22;8701;50.150;8.756;2023-08-06T21:20:00;15.20;99.90
17172;DHT22;8701;50.150;8.756;2023-08-06T21:24:04;15.10;99.90
17172;DHT22;8701;50.150;8.756;2023-08-06T21:28:06;15.10;99.90
17172;DHT22;8701;50.150;8.756;2023-08-06T21:32:09;15.10;99.90
17172;DHT22;8701;50.150;8.756;2023-08-06T21:36:11;15.20;99.90
17172;DHT22;8701;50.150;8.756;2023-08-06T21:40:16;15.20;99.90
17172;DHT22;8701;50.150;8.756;2023-08-06T21:44:18;15.20;99.90
17172;DHT22;8701;50.150;8.756;2023-08-06T21:48:20;15.20;99.90
17172;DHT22;8701;50.150;8.756;2023-08-06T21:52:24;15.20;99.90
17172;DHT22;8701;50.150;8.756;2023-08-06T21:56:28;15.20;99.90
17172;DHT22;8701;50.150;8.756;2023-08-06T22:00:30;15.20;99.90
17172;DHT22;8701;50.150;8.756;2023-08-06T22:04:34;15.20;99.90
17172;DHT22;8701;50.150;8.756;2023-08-06T22:08:38;15.30;99.90
17172;DHT22;8701;50.150;8.756;2023-08-06T22:12:42;15.10;99.90
17172;DHT22;8701;50.150;8.756;2023-08-06T22:16:44;15.10;99.90
17172;DHT22;8701;50.150;8.756;2023-08-06T22:20:47;15.10;99.90
17172;DHT22;8701;50.150;8.756;2023-08-06T22:24:50;15.10;99.90
17172;DHT22;8701;50.150;8.756;2023-08-06T22:28:54;15.10;99.90
17172;DHT22;8701;50.150;8.756;2023-08-06T22:32:56;15.00;99.90
17172;DHT22;8701;50.150;8.756;2023-08-06T22:36:58;15.00;99.90
17172;DHT22;8701;50.150;8.756;2023-08-06T22:41:01;15.00;99.90
17172;DHT22;8701;50.150;8.756;2023-08-06T22:45:06;15.00;99.90
17172;DHT22;8701;50.150;8.756;2023-08-06T22:49:08;15.00;99.90
17172;DHT22;8701;50.150;8.756;2023-08-06T22:53:10;14.90;99.90
17172;DHT22;8701;50.150;8.756;2023-08-06T22:57:13;15.00;99.90
17172;DHT22;8701;50.150;8.756;2023-08-06T23:01:16;15.00;99.90
17172;DHT22;8701;50.150;8.756;2023-08-06T23:05:18;14.90;99.90
17172;DHT22;8701;50.150;8.756;2023-08-06T23:09:21;15.00;99.90
17172;DHT22;8701;50.150;8.756;2023-08-06T23:13:23;14.90;99.90
17172;DHT22;8701;50.150;8.756;2023-08-06T23:17:27;15.00;99.90
17172;DHT22;8701;50.150;8.756;2023-08-06T23:21:29;15.00;99.90
17172;DHT22;8701;50.150;8.756;2023-08-06T23:25:34;14.90;99.90
17172;DHT22;8701;50.150;8.756;2023-08-06T23:29:36;14.90;99.90
17172;DHT22;8701;50.150;8.756;2023-08-06T23:33:40;14.90;99.90
17172;DHT22;8701;50.150;8.756;2023-08-06T23:37:42;14.90;99.90
17172;DHT22;8701;50.150;8.756;2023-08-06T23:41:44;14.90;99.90
17172;DHT22;8701;50.150;8.756;2023-08-06T23:45:46;14.90;99.90
17172;DHT22;8701;50.150;8.756;2023-08-06T23:49:50;14.90;99.90
17172;DHT22;8701;50.150;8.756;2023-08-06T23:53:52;14.80;99.90
17172;DHT22;8701;50.150;8.756;2023-08-06T23:57:54;14.90;99.90
